Time;durP1;ratioP1;P1;durP2;ratioP2;P2;SDS_P1;SDS_P2;PMS_P1;PMS_P2;Temp;Humidity;BMP_temperature;BMP_pressure;BME280_temperature;BME280_humidity;BME280_pressure;Samples;Min_cycle;Max_cycle;Signal;HPM_P1;HPM_P2
2024/04/02 00:00:06;;;;;;;;;;;;;;;;;;107260;1253;62861;-80
2024/04/02 00:02:33;;;;;;;;;;;;;;;;;;106847;1253;62840;-78
2024/04/02 00:04:59;;;;;;;;;;;;;;;;;;106638;1255;62810;-78
2024/04/02 00:07:25;;;;;;;;;;;;;;;;;;109645;1253;60747;-79
2024/04/02 00:09:51;;;;;;;;;;;;;;;;;;109656;1251;60756;-78
2024/04/02 00:12:17;;;;;;;;;;;;;;;;;;109649;1251;60568;-80
2024/04/02 00:14:44;;;;;;;;;;;;;;;;;;108834;1249;62900;-78
2024/04/02 00:17:10;;;;;;;;;;;;;;;;;;107553;1251;62904;-78
2024/04/02 00:19:36;;;;;;;;;;;;;;;;;;109681;1250;60480;-79
2024/04/02 00:22:02;;;;;;;;;;;;;;;;;;109652;1253;60745;-80
2024/04/02 00:24:29;;;;;;;;;;;;;;;;;;109668;1250;61233;-78
2024/04/02 00:26:55;;;;;;;;;;;;;;;;;;109642;1250;60749;-79
2024/04/02 00:29:21;;;;;;;;;;;;;;;;;;109100;1251;60775;-80
2024/04/02 00:31:47;;;;;;;;;;;;;;;;;;109704;1250;60523;-78
2024/04/02 00:34:13;;;;;;;;;;;;;;;;;;108054;1253;62921;-80
2024/04/02 00:36:40;;;;;;;;;;;;;;;;;;107403;1251;62877;-80
2024/04/02 00:39:06;;;;;;;;;;;;;;;;;;109684;1250;60665;-78
2024/04/02 00:41:32;;;;;;;;;;;;;;;;;;109230;1251;60720;-80
2024/04/02 00:43:58;;;;;;;;;;;;;;;;;;106572;1251;62986;-79
2024/04/02 00:46:24;;;;;;;;;;;;;;;;;;106601;1254;62960;-78
2024/04/02 00:48:51;;;;;;;;;;;;;;;;;;106554;1254;62950;-80
2024/04/02 00:51:17;;;;;;;;;;;;;;;;;;106639;1254;63725;-79
2024/04/02 00:53:43;;;;;;;;;;;;;;;;;;106643;1254;62993;-80
2024/04/02 00:56:09;;;;;;;;;;;;;;;;;;106766;1253;62969;-80
2024/04/02 00:58:36;;;;;;;;;;;;;;;;;;106587;1254;63863;-79
2024/04/02 01:01:02;;;;;;;;;;;;;;;;;;106585;1253;62841;-79
2024/04/02 01:03:28;;;;;;;;;;;;;;;;;;106636;1254;62932;-78
2024/04/02 01:05:54;;;;;;;;;;;;;;;;;;106542;1250;62870;-78
2024/04/02 01:08:21;;;;;;;;;;;;;;;;;;106574;1251;62906;-78
2024/04/02 01:10:47;;;;;;;;;;;;;;;;;;109657;1251;60462;-80
2024/04/02 01:13:13;;;;;;;;;;;;;;;;;;109680;1251;60470;-78
2024/04/02 01:15:39;;;;;;;;;;;;;;;;;;108271;1251;62762;-80
2024/04/02 01:18:06;;;;;;;;;;;;;;;;;;106608;1251;62851;-80
2024/04/02 01:20:32;;;;;;;;;;;;;;;;;;106541;1254;62954;-80
2024/04/02 01:22:58;;;;;;;;;;;;;;;;;;106626;1250;62960;-78
2024/04/02 01:25:24;;;;;;;;;;;;;;;;;;106633;1250;63027;-78
2024/04/02 01:27:50;;;;;;;;;;;;;;;;;;106556;1253;62860;-80
2024/04/02 01:30:17;;;;;;;;;;;;;;;;;;106565;1253;62841;-78
2024/04/02 01:32:43;;;;;;;;;;;;;;;;;;106569;1254;62957;-77
2024/04/02 01:35:10;;;;;;;;;;;;;;;;;;106602;1253;63872;-80
2024/04/02 01:37:36;;;;;;;;;;;;;;;;;;106640;1251;62950;-77
2024/04/02 01:40:03;;;;;;;;;;;;;;;;;;106610;1249;62966;-79
2024/04/02 01:42:29;;;;;;;;;;;;;;;;;;107222;1250;62887;-78
2024/04/02 01:44:57;;;;;;;;;;;;;;;;;;106563;1251;62954;-80
2024/04/02 01:47:23;;;;;;;;;;;;;;;;;;106615;1251;62899;-79
2024/04/02 01:49:49;;;;;;;;;;;;;;;;;;106605;1250;60833;-77
2024/04/02 01:52:16;;;;;;;;;;;;;;;;;;106581;1254;62946;-78
2024/04/02 01:54:42;;;;;;;;;;;;;;;;;;106593;1251;63044;-80
2024/04/02 01:57:08;;;;;;;;;;;;;;;;;;106561;1251;62894;-80
2024/04/02 01:59:34;;;;;;;;;;;;;;;;;;107152;1254;62944;-80
2024/04/02 02:02:01;;;;;;;;;;;;;;;;;;106619;1254;62751;-78
2024/04/02 02:04:27;;;;;;;;;;;;;;;;;;106589;1251;62893;-77
2024/04/02 02:06:53;;;;;;;;;;;;;;;;;;108507;1251;62860;-78
2024/04/02 02:09:19;;;;;;;;;;;;;;;;;;109651;1251;60448;-81
2024/04/02 02:11:46;;;;;;;;;;;;;;;;;;109657;1251;61089;-80
2024/04/02 02:14:12;;;;;;;;;;;;;;;;;;109700;1249;60564;-80
2024/04/02 02:16:39;;;;;;;;;;;;;;;;;;109695;1249;60527;-78
2024/04/02 02:19:05;;;;;;;;;;;;;;;;;;109690;1249;60750;-78
2024/04/02 02:21:31;;;;;;;;;;;;;;;;;;109694;1249;60977;-80
2024/04/02 02:23:57;;;;;;;;;;;;;;;;;;109675;1249;60525;-78
2024/04/02 02:26:23;;;;;;;;;;;;;;;;;;109681;1249;60694;-80
2024/04/02 02:28:50;;;;;;;;;;;;;;;;;;109710;1250;60633;-80
2024/04/02 02:31:16;;;;;;;;;;;;;;;;;;107134;1251;63033;-77
2024/04/02 02:33:42;;;;;;;;;;;;;;;;;;106548;1250;62949;-79
2024/04/02 02:36:08;;;;;;;;;;;;;;;;;;106585;1251;62845;-77
2024/04/02 02:38:34;;;;;;;;;;;;;;;;;;106675;1253;62720;-80
2024/04/02 02:41:01;;;;;;;;;;;;;;;;;;106560;1251;62835;-80
2024/04/02 02:43:27;;;;;;;;;;;;;;;;;;109191;1249;62748;-77
2024/04/02 02:45:54;;;;;;;;;;;;;;;;;;109683;1249;60370;-77
2024/04/02 02:48:20;;;;;;;;;;;;;;;;;;109665;1250;60690;-80
2024/04/02 02:50:46;;;;;;;;;;;;;;;;;;109698;1250;60420;-77
2024/04/02 02:53:13;;;;;;;;;;;;;;;;;;109671;1250;60665;-77
2024/04/02 02:55:39;;;;;;;;;;;;;;;;;;109676;1250;60721;-77
2024/04/02 02:58:05;;;;;;;;;;;;;;;;;;109713;1249;60356;-80
2024/04/02 03:00:31;;;;;;;;;;;;;;;;;;109645;1250;60757;-78
2024/04/02 03:02:58;;;;;;;;;;;;;;;;;;107591;1251;62899;-77
2024/04/02 03:05:24;;;;;;;;;;;;;;;;;;106577;1253;62969;-80
2024/04/02 03:07:50;;;;;;;;;;;;;;;;;;106579;1254;62890;-77
2024/04/02 03:10:17;;;;;;;;;;;;;;;;;;106579;1251;62772;-77
2024/04/02 03:12:43;;;;;;;;;;;;;;;;;;106596;1253;62873;-77
2024/04/02 03:15:09;;;;;;;;;;;;;;;;;;106550;1253;63000;-80
2024/04/02 03:17:35;;;;;;;;;;;;;;;;;;106598;1250;62877;-80
2024/04/02 03:20:01;;;;;;;;;;;;;;;;;;107083;1251;62879;-82
2024/04/02 03:22:27;;;;;;;;;;;;;;;;;;107229;1251;63369;-82
2024/04/02 03:24:54;;;;;;;;;;;;;;;;;;107262;1250;62793;-82
2024/04/02 03:27:21;;;;;;;;;;;;;;;;;;107229;1251;62871;-82
2024/04/02 03:29:47;;;;;;;;;;;;;;;;;;107367;1250;62237;-80
2024/04/02 03:32:13;;;;;;;;;;;;;;;;;;107245;1250;62876;-79
2024/04/02 03:34:40;;;;;;;;;;;;;;;;;;107183;1251;62791;-81
2024/04/02 03:37:06;;;;;;;;;;;;;;;;;;107088;1254;62876;-82
2024/04/02 03:39:32;;;;;;;;;;;;;;;;;;107175;1250;62884;-82
2024/04/02 03:41:58;;;;;;;;;;;;;;;;;;107197;1250;62920;-79
2024/04/02 03:44:24;;;;;;;;;;;;;;;;;;107235;1251;62921;-82
2024/04/02 03:46:51;;;;;;;;;;;;;;;;;;107176;1249;63396;-82
2024/04/02 03:49:17;;;;;;;;;;;;;;;;;;107271;1251;62842;-83
2024/04/02 03:51:43;;;;;;;;;;;;;;;;;;107384;1254;62958;-83
2024/04/02 03:54:09;;;;;;;;;;;;;;;;;;107475;1250;62979;-80
2024/04/02 03:56:35;;;;;;;;;;;;;;;;;;107433;1249;62718;-80
2024/04/02 03:59:02;;;;;;;;;;;;;;;;;;107500;1251;62873;-77
2024/04/02 04:01:28;;;;;;;;;;;;;;;;;;106576;1254;62879;-77
2024/04/02 04:03:54;;;;;;;;;;;;;;;;;;106657;1250;62890;-80
2024/04/02 04:06:20;;;;;;;;;;;;;;;;;;106639;1253;62990;-83
2024/04/02 04:08:46;;;;;;;;;;;;;;;;;;107327;1249;63015;-79
2024/04/02 04:11:13;;;;;;;;;;;;;;;;;;107278;1253;62800;-79
2024/04/02 04:13:39;;;;;;;;;;;;;;;;;;107264;1250;62952;-80
2024/04/02 04:16:05;;;;;;;;;;;;;;;;;;107676;1250;62924;-80
2024/04/02 04:18:31;;;;;;;;;;;;;;;;;;109682;1249;60707;-77
2024/04/02 04:20:57;;;;;;;;;;;;;;;;;;109675;1250;60497;-80
2024/04/02 04:23:24;;;;;;;;;;;;;;;;;;109658;1250;60518;-77
2024/04/02 04:25:50;;;;;;;;;;;;;;;;;;109635;1250;60739;-77
2024/04/02 04:28:16;;;;;;;;;;;;;;;;;;109635;1249;60877;-77
2024/04/02 04:30:42;;;;;;;;;;;;;;;;;;109690;1250;60453;-80
2024/04/02 04:33:09;;;;;;;;;;;;;;;;;;109676;1249;60666;-81
2024/04/02 04:35:35;;;;;;;;;;;;;;;;;;109659;1250;60498;-78
2024/04/02 04:38:01;;;;;;;;;;;;;;;;;;107193;1250;62951;-81
2024/04/02 04:40:27;;;;;;;;;;;;;;;;;;106598;1254;62920;-79
2024/04/02 04:42:54;;;;;;;;;;;;;;;;;;106575;1254;62881;-79
2024/04/02 04:45:20;;;;;;;;;;;;;;;;;;107302;1250;63904;-79
2024/04/02 04:47:46;;;;;;;;;;;;;;;;;;107208;1253;62998;-82
2024/04/02 04:50:12;;;;;;;;;;;;;;;;;;107208;1249;62963;-79
2024/04/02 04:52:38;;;;;;;;;;;;;;;;;;107245;1250;62844;-80
2024/04/02 04:55:05;;;;;;;;;;;;;;;;;;107172;1250;62940;-80
2024/04/02 04:57:32;;;;;;;;;;;;;;;;;;107257;1250;63351;-83
2024/04/02 04:59:58;;;;;;;;;;;;;;;;;;107329;1251;62841;-83
2024/04/02 05:02:24;;;;;;;;;;;;;;;;;;107242;1250;62995;-82
2024/04/02 05:04:50;;;;;;;;;;;;;;;;;;107455;1254;62871;-79
2024/04/02 05:07:16;;;;;;;;;;;;;;;;;;107529;1250;62843;-82
2024/04/02 05:09:43;;;;;;;;;;;;;;;;;;107396;1250;62957;-80
2024/04/02 05:12:09;;;;;;;;;;;;;;;;;;107455;1250;62886;-84
2024/04/02 05:14:35;;;;;;;;;;;;;;;;;;107219;1250;62844;-82
2024/04/02 05:17:01;;;;;;;;;;;;;;;;;;107267;1250;62927;-80
2024/04/02 05:19:27;;;;;;;;;;;;;;;;;;107248;1251;62934;-84
2024/04/02 05:21:54;;;;;;;;;;;;;;;;;;107302;1249;62906;-83
2024/04/02 05:24:20;;;;;;;;;;;;;;;;;;107220;1249;62922;-80
2024/04/02 05:26:46;;;;;;;;;;;;;;;;;;107211;1254;62925;-82
2024/04/02 05:29:12;;;;;;;;;;;;;;;;;;107251;1250;62780;-82
2024/04/02 05:31:38;;;;;;;;;;;;;;;;;;107226;1253;62873;-79
2024/04/02 05:34:05;;;;;;;;;;;;;;;;;;107169;1250;62887;-82
2024/04/02 05:36:31;;;;;;;;;;;;;;;;;;107195;1254;62946;-79
2024/04/02 05:38:57;;;;;;;;;;;;;;;;;;107249;1250;62867;-82
2024/04/02 05:41:23;;;;;;;;;;;;;;;;;;107200;1253;63676;-79
2024/04/02 05:43:50;;;;;;;;;;;;;;;;;;107310;1249;62826;-83
2024/04/02 05:46:16;;;;;;;;;;;;;;;;;;107393;1250;63347;-79
2024/04/02 05:48:42;;;;;;;;;;;;;;;;;;107319;1250;61460;-82
2024/04/02 05:51:09;;;;;;;;;;;;;;;;;;107261;1253;63367;-82
2024/04/02 05:53:35;;;;;;;;;;;;;;;;;;107252;1249;62842;-83
2024/04/02 05:56:03;;;;;;;;;;;;;;;;;;107259;1250;62992;-79
2024/04/02 05:58:29;;;;;;;;;;;;;;;;;;107346;1253;62775;-83
2024/04/02 06:00:55;;;;;;;;;;;;;;;;;;107288;1250;62859;-83
2024/04/02 06:03:21;;;;;;;;;;;;;;;;;;107225;1250;65047;-82
2024/04/02 06:05:47;;;;;;;;;;;;;;;;;;107261;1250;62883;-79
2024/04/02 06:08:15;;;;;;;;;;;;;;;;;;107405;1249;62845;-83
2024/04/02 06:10:41;;;;;;;;;;;;;;;;;;107397;1249;245418;-83
2024/04/02 06:13:07;;;;;;;;;;;;;;;;;;107451;1250;62934;-83
2024/04/02 06:15:33;;;;;;;;;;;;;;;;;;107251;1249;62830;-80
2024/04/02 06:18:00;;;;;;;;;;;;;;;;;;107367;1250;62726;-82
2024/04/02 06:20:26;;;;;;;;;;;;;;;;;;107420;1249;63366;-82
2024/04/02 06:22:53;;;;;;;;;;;;;;;;;;107309;1249;62958;-81
2024/04/02 06:25:19;;;;;;;;;;;;;;;;;;107205;1252;62991;-81
2024/04/02 06:27:45;;;;;;;;;;;;;;;;;;107271;1251;62966;-81
2024/04/02 06:30:11;;;;;;;;;;;;;;;;;;107347;1249;62727;-81
2024/04/02 06:32:37;;;;;;;;;;;;;;;;;;107253;1254;62927;-77
2024/04/02 06:35:04;;;;;;;;;;;;;;;;;;106577;1250;62989;-78
2024/04/02 06:37:30;;;;;;;;;;;;;;;;;;106594;1250;62970;-81
2024/04/02 06:39:57;;;;;;;;;;;;;;;;;;106639;1253;62696;-78
2024/04/02 06:42:23;;;;;;;;;;;;;;;;;;106705;1250;62905;-78
2024/04/02 06:44:49;;;;;;;;;;;;;;;;;;106635;1254;63722;-78
2024/04/02 06:47:15;;;;;;;;;;;;;;;;;;106703;1254;62915;-80
2024/04/02 06:49:42;;;;;;;;;;;;;;;;;;108874;1250;64351;-82
2024/04/02 06:52:08;;;;;;;;;;;;;;;;;;109685;1248;60509;-81
2024/04/02 06:54:34;;;;;;;;;;;;;;;;;;107731;1248;62913;-77
2024/04/02 06:57:00;;;;;;;;;;;;;;;;;;109583;1250;60562;-81
2024/04/02 06:59:26;;;;;;;;;;;;;;;;;;109611;1249;60721;-82
2024/04/02 07:01:52;;;;;;;;;;;;;;;;;;109629;1249;61539;-78
2024/04/02 07:04:19;;;;;;;;;;;;;;;;;;109614;1249;60461;-79
2024/04/02 07:06:45;;;;;;;;;;;;;;;;;;109622;1249;60473;-81
2024/04/02 07:09:11;;;;;;;;;;;;;;;;;;108559;1249;61170;-78
2024/04/02 07:11:38;;;;;;;;;;;;;;;;;;107458;1250;62957;-78
2024/04/02 07:14:04;;;;;;;;;;;;;;;;;;107349;1250;62898;-81
2024/04/02 07:16:30;;;;;;;;;;;;;;;;;;107293;1250;63036;-81
2024/04/02 07:18:57;;;;;;;;;;;;;;;;;;107603;1249;62353;-78
2024/04/02 07:21:23;;;;;;;;;;;;;;;;;;107707;1250;61440;-81
2024/04/02 07:23:49;;;;;;;;;;;;;;;;;;107436;1254;63616;-80
2024/04/02 07:26:15;;;;;;;;;;;;;;;;;;107450;1251;62943;-78
2024/04/02 07:28:41;;;;;;;;;;;;;;;;;;107368;1250;62877;-78
2024/04/02 07:31:08;;;;;;;;;;;;;;;;;;106789;1254;62951;-81
2024/04/02 07:33:34;;;;;;;;;;;;;;;;;;106657;1250;62866;-80
2024/04/02 07:36:04;;;;;;;;;;;;;;;;;;106563;1256;62918;-78
2024/04/02 07:38:30;;;;;;;;;;;;;;;;;;106618;1251;62838;-78
2024/04/02 07:40:58;;;;;;;;;;;;;;;;;;106704;1252;62940;-78
2024/04/02 07:43:25;;;;;;;;;;;;;;;;;;107520;1251;62732;-80
2024/04/02 07:45:51;;;;;;;;;;;;;;;;;;107259;1250;62729;-80
2024/04/02 07:48:17;;;;;;;;;;;;;;;;;;106736;1254;62928;-81
2024/04/02 07:50:43;;;;;;;;;;;;;;;;;;106664;1265;62848;-80
2024/04/02 07:53:09;;;;;;;;;;;;;;;;;;107013;1254;62966;-78
2024/04/02 07:55:36;;;;;;;;;;;;;;;;;;106905;1249;62950;-81
2024/04/02 07:58:02;;;;;;;;;;;;;;;;;;107368;1250;62926;-82
2024/04/02 08:00:28;;;;;;;;;;;;;;;;;;106701;1250;62868;-78
2024/04/02 08:02:54;;;;;;;;;;;;;;;;;;106694;1253;62958;-78
2024/04/02 08:05:21;;;;;;;;;;;;;;;;;;106650;1250;63024;-80
2024/04/02 08:07:47;;;;;;;;;;;;;;;;;;106588;1250;62850;-77
2024/04/02 08:10:13;;;;;;;;;;;;;;;;;;106658;1254;62828;-81
2024/04/02 08:12:39;;;;;;;;;;;;;;;;;;107444;1250;63864;-78
2024/04/02 08:15:06;;;;;;;;;;;;;;;;;;107548;1254;62902;-79
2024/04/02 08:17:32;;;;;;;;;;;;;;;;;;107512;1248;62838;-78
2024/04/02 08:19:58;;;;;;;;;;;;;;;;;;106838;1250;62950;-78
2024/04/02 08:22:24;;;;;;;;;;;;;;;;;;106758;1254;62961;-79
2024/04/02 08:24:50;;;;;;;;;;;;;;;;;;106616;1254;62963;-79
2024/04/02 08:27:17;;;;;;;;;;;;;;;;;;106627;1253;62873;-81
2024/04/02 08:29:43;;;;;;;;;;;;;;;;;;108283;1250;62848;-81
2024/04/02 08:32:09;;;;;;;;;;;;;;;;;;108011;1250;61946;-81
2024/04/02 08:34:36;;;;;;;;;;;;;;;;;;107406;1250;62678;-78
2024/04/02 08:37:02;;;;;;;;;;;;;;;;;;107296;1250;62760;-78
2024/04/02 08:39:28;;;;;;;;;;;;;;;;;;107333;1249;62943;-78
2024/04/02 08:41:54;;;;;;;;;;;;;;;;;;107270;1251;62970;-79
2024/04/02 08:44:21;;;;;;;;;;;;;;;;;;106712;1250;60885;-81
2024/04/02 08:46:47;;;;;;;;;;;;;;;;;;107192;1253;62176;-78
2024/04/02 08:49:13;;;;;;;;;;;;;;;;;;106651;1253;62883;-81
2024/04/02 08:51:39;;;;;;;;;;;;;;;;;;106707;1250;62781;-81
2024/04/02 08:54:05;;;;;;;;;;;;;;;;;;107327;1251;62967;-81
2024/04/02 08:56:32;;;;;;;;;;;;;;;;;;108002;1250;62942;-78
2024/04/02 08:58:58;;;;;;;;;;;;;;;;;;107174;1249;62934;-78
2024/04/02 09:01:24;;;;;;;;;;;;;;;;;;107219;1250;62996;-78
2024/04/02 09:03:50;;;;;;;;;;;;;;;;;;107305;1254;62809;-81
2024/04/02 09:06:16;;;;;;;;;;;;;;;;;;107280;1250;62921;-82
2024/04/02 09:08:43;;;;;;;;;;;;;;;;;;107253;1250;62950;-78
2024/04/02 09:11:09;;;;;;;;;;;;;;;;;;107357;1250;62926;-81
2024/04/02 09:13:35;;;;;;;;;;;;;;;;;;107307;1250;62900;-78
2024/04/02 09:16:01;;;;;;;;;;;;;;;;;;106652;1254;62805;-81
2024/04/02 09:18:35;;;;;;;;;;;;;;;;;;109320;1250;60623;-81
2024/04/02 09:21:01;;;;;;;;;;;;;;;;;;109656;1250;62373;-82
2024/04/02 09:23:27;;;;;;;;;;;;;;;;;;108774;1249;60895;-78
2024/04/02 09:25:54;;;;;;;;;;;;;;;;;;107337;1254;62835;-82
2024/04/02 09:28:20;;;;;;;;;;;;;;;;;;107232;1250;62874;-82
2024/04/02 09:30:46;;;;;;;;;;;;;;;;;;107327;1250;62772;-78
2024/04/02 09:33:12;;;;;;;;;;;;;;;;;;107426;1249;62898;-81
2024/04/02 09:35:38;;;;;;;;;;;;;;;;;;107378;1250;62872;-82
2024/04/02 09:38:04;;;;;;;;;;;;;;;;;;107363;1248;62854;-81
2024/04/02 09:40:31;;;;;;;;;;;;;;;;;;107382;1248;62946;-78
2024/04/02 09:42:57;;;;;;;;;;;;;;;;;;107128;1254;62904;-79
2024/04/02 09:45:23;;;;;;;;;;;;;;;;;;107103;1249;62832;-78
2024/04/02 09:47:49;;;;;;;;;;;;;;;;;;106933;1250;62847;-78
2024/04/02 09:50:16;;;;;;;;;;;;;;;;;;106998;1250;62868;-79
2024/04/02 09:52:42;;;;;;;;;;;;;;;;;;106508;1250;62848;-78
2024/04/02 09:55:08;;;;;;;;;;;;;;;;;;106626;1254;62937;-78
2024/04/02 09:57:34;;;;;;;;;;;;;;;;;;106623;1253;62925;-81
2024/04/02 10:00:00;;;;;;;;;;;;;;;;;;107380;1250;62743;-82
2024/04/02 10:02:27;;;;;;;;;;;;;;;;;;107245;1250;62832;-78
2024/04/02 10:04:54;;;;;;;;;;;;;;;;;;106596;1254;62976;-82
2024/04/02 10:07:20;;;;;;;;;;;;;;;;;;107105;1250;62900;-82
2024/04/02 10:09:46;;;;;;;;;;;;;;;;;;107027;1254;62911;-78
2024/04/02 10:12:12;;;;;;;;;;;;;;;;;;106983;1253;62876;-82
2024/04/02 10:14:39;;;;;;;;;;;;;;;;;;107020;1250;62968;-82
2024/04/02 10:17:06;;;;;;;;;;;;;;;;;;107215;1253;62903;-80
2024/04/02 10:19:33;;;;;;;;;;;;;;;;;;107068;1254;62963;-82
2024/04/02 10:21:59;;;;;;;;;;;;;;;;;;107052;1250;62892;-83
2024/04/02 10:24:25;;;;;;;;;;;;;;;;;;107041;1251;62949;-83
2024/04/02 10:26:51;;;;;;;;;;;;;;;;;;107044;1254;62818;-83
2024/04/02 10:29:17;;;;;;;;;;;;;;;;;;106976;1251;62944;-79
2024/04/02 10:31:43;;;;;;;;;;;;;;;;;;107194;1248;62943;-83
2024/04/02 10:34:10;;;;;;;;;;;;;;;;;;107279;1250;62861;-80
2024/04/02 10:36:36;;;;;;;;;;;;;;;;;;107054;1251;62950;-79
2024/04/02 10:39:03;;;;;;;;;;;;;;;;;;107033;1250;82823;-83
2024/04/02 10:41:29;;;;;;;;;;;;;;;;;;107056;1253;63529;-83
2024/04/02 10:43:55;;;;;;;;;;;;;;;;;;107030;1253;62957;-83
2024/04/02 10:46:21;;;;;;;;;;;;;;;;;;107054;1253;62890;-82
2024/04/02 10:48:47;;;;;;;;;;;;;;;;;;107124;1250;62902;-83
2024/04/02 10:51:14;;;;;;;;;;;;;;;;;;107116;1248;62913;-82
2024/04/02 10:53:40;;;;;;;;;;;;;;;;;;107163;1252;63110;-80
2024/04/02 10:56:06;;;;;;;;;;;;;;;;;;107088;1252;62881;-80
2024/04/02 10:58:32;;;;;;;;;;;;;;;;;;107110;1250;62951;-79
2024/04/02 11:00:58;;;;;;;;;;;;;;;;;;106926;1250;62867;-80
2024/04/02 11:03:24;;;;;;;;;;;;;;;;;;107070;1250;62822;-83
2024/04/02 11:05:51;;;;;;;;;;;;;;;;;;107079;1250;62842;-83
2024/04/02 11:08:17;;;;;;;;;;;;;;;;;;107242;1253;63052;-80
2024/04/02 11:10:43;;;;;;;;;;;;;;;;;;106938;1254;62882;-83
2024/04/02 11:13:09;;;;;;;;;;;;;;;;;;107147;1248;62938;-83
2024/04/02 11:15:35;;;;;;;;;;;;;;;;;;107015;1251;62832;-79
2024/04/02 11:18:02;;;;;;;;;;;;;;;;;;107011;1253;63257;-83
2024/04/02 11:20:28;;;;;;;;;;;;;;;;;;106958;1251;62883;-83
2024/04/02 11:25:39;;;;;;;;;;;;;;;;;;106992;1250;62799;-83
2024/04/02 11:28:05;;;;;;;;;;;;;;;;;;107160;1250;63322;-83
2024/04/02 11:30:32;;;;;;;;;;;;;;;;;;106934;1254;62956;-81
2024/04/02 11:32:58;;;;;;;;;;;;;;;;;;106910;1252;63027;-83
2024/04/02 11:35:24;;;;;;;;;;;;;;;;;;106995;1250;62818;-79
2024/04/02 11:37:51;;;;;;;;;;;;;;;;;;106990;1250;62951;-80
2024/04/02 11:40:17;;;;;;;;;;;;;;;;;;107056;1253;62964;-84
2024/04/02 11:42:43;;;;;;;;;;;;;;;;;;107213;1253;62968;-80
2024/04/02 11:45:10;;;;;;;;;;;;;;;;;;107294;1251;62944;-83
2024/04/02 11:47:36;;;;;;;;;;;;;;;;;;107549;1249;62874;-79
2024/04/02 11:50:02;;;;;;;;;;;;;;;;;;107416;1253;62645;-79
2024/04/02 11:52:28;;;;;;;;;;;;;;;;;;107245;1256;62768;-80
2024/04/02 11:54:54;;;;;;;;;;;;;;;;;;107318;1253;62775;-83
2024/04/02 12:00:11;;;;;;;;;;;;;;;;;;107358;1250;62762;-80
2024/04/02 12:02:38;;;;;;;;;;;;;;;;;;107392;1250;62768;-77
2024/04/02 12:05:05;;;;;;;;;;;;;;;;;;106619;1250;63502;-79
2024/04/02 12:07:31;;;;;;;;;;;;;;;;;;107256;1251;62698;-79
2024/04/02 12:09:59;;;;;;;;;;;;;;;;;;107473;1253;62983;-79
2024/04/02 12:12:25;;;;;;;;;;;;;;;;;;107431;1248;62722;-81
2024/04/02 12:14:52;;;;;;;;;;;;;;;;;;107322;1250;62835;-77
2024/04/02 12:17:18;;;;;;;;;;;;;;;;;;106613;1250;62947;-81
2024/04/02 12:19:44;;;;;;;;;;;;;;;;;;106684;1255;62942;-81
2024/04/02 12:22:11;;;;;;;;;;;;;;;;;;106521;1253;62884;-83
2024/04/02 12:24:38;;;;;;;;;;;;;;;;;;107360;1250;61505;-83
2024/04/02 12:27:04;;;;;;;;;;;;;;;;;;107216;1250;63041;-81
2024/04/02 12:29:31;;;;;;;;;;;;;;;;;;107195;1250;63202;-81
2024/04/02 12:31:58;;;;;;;;;;;;;;;;;;107224;1255;62956;-81
2024/04/02 12:34:26;;;;;;;;;;;;;;;;;;106620;1250;62972;-78
2024/04/02 12:36:52;;;;;;;;;;;;;;;;;;106603;1250;62961;-81
2024/04/02 12:39:18;;;;;;;;;;;;;;;;;;106602;1251;63047;-81
2024/04/02 12:41:44;;;;;;;;;;;;;;;;;;106749;1250;62882;-77
2024/04/02 12:44:11;;;;;;;;;;;;;;;;;;106639;1250;62943;-81
2024/04/02 12:46:37;;;;;;;;;;;;;;;;;;106827;1254;63146;-80
2024/04/02 12:49:03;;;;;;;;;;;;;;;;;;106713;1250;64735;-81
2024/04/02 12:51:29;;;;;;;;;;;;;;;;;;106701;1250;62872;-82
2024/04/02 12:53:55;;;;;;;;;;;;;;;;;;107265;1250;62858;-79
2024/04/02 12:56:21;;;;;;;;;;;;;;;;;;107238;1250;62866;-77
2024/04/02 12:58:47;;;;;;;;;;;;;;;;;;107327;1254;62915;-81
2024/04/02 13:01:14;;;;;;;;;;;;;;;;;;107518;1250;62920;-81
2024/04/02 13:03:40;;;;;;;;;;;;;;;;;;107351;1250;62948;-81
2024/04/02 13:06:06;;;;;;;;;;;;;;;;;;107256;1250;62733;-81
2024/04/02 13:08:32;;;;;;;;;;;;;;;;;;107251;1254;62956;-81
2024/04/02 13:10:58;;;;;;;;;;;;;;;;;;107189;1250;62926;-81
2024/04/02 13:13:24;;;;;;;;;;;;;;;;;;107337;1250;62877;-81
2024/04/02 13:15:51;;;;;;;;;;;;;;;;;;107254;1253;62850;-77
2024/04/02 13:18:19;;;;;;;;;;;;;;;;;;106676;1250;62847;-81
2024/04/02 13:20:45;;;;;;;;;;;;;;;;;;107259;1254;62831;-81
2024/04/02 13:23:12;;;;;;;;;;;;;;;;;;107335;1256;62980;-82
2024/04/02 13:25:38;;;;;;;;;;;;;;;;;;107208;1250;63788;-78
2024/04/02 13:28:04;;;;;;;;;;;;;;;;;;107264;1253;62887;-82
2024/04/02 13:30:30;;;;;;;;;;;;;;;;;;107175;1250;62865;-78
2024/04/02 13:32:56;;;;;;;;;;;;;;;;;;107221;1250;62979;-78
2024/04/02 13:35:22;;;;;;;;;;;;;;;;;;106604;1255;62803;-78
2024/04/02 13:37:49;;;;;;;;;;;;;;;;;;106568;1250;62958;-81
2024/04/02 13:40:15;;;;;;;;;;;;;;;;;;108724;1250;62753;-82
2024/04/02 13:42:41;;;;;;;;;;;;;;;;;;109691;1250;60501;-79
2024/04/02 13:45:10;;;;;;;;;;;;;;;;;;109650;1250;60708;-82
2024/04/02 13:47:36;;;;;;;;;;;;;;;;;;109643;1250;60519;-81
2024/04/02 13:50:02;;;;;;;;;;;;;;;;;;109676;1249;60533;-81
2024/04/02 13:52:28;;;;;;;;;;;;;;;;;;109671;1250;60481;-79
2024/04/02 13:54:54;;;;;;;;;;;;;;;;;;109567;1251;60551;-77
2024/04/02 13:57:20;;;;;;;;;;;;;;;;;;109655;1250;60710;-80
2024/04/02 13:59:47;;;;;;;;;;;;;;;;;;109677;1250;60661;-81
2024/04/02 14:02:13;;;;;;;;;;;;;;;;;;109395;1250;60897;-78
2024/04/02 14:04:43;;;;;;;;;;;;;;;;;;107274;1250;63047;-78
2024/04/02 14:07:09;;;;;;;;;;;;;;;;;;106573;1253;62954;-82
2024/04/02 14:09:36;;;;;;;;;;;;;;;;;;107352;1250;62935;-76
2024/04/02 14:12:03;;;;;;;;;;;;;;;;;;106607;1251;62811;-75
2024/04/02 14:14:29;;;;;;;;;;;;;;;;;;106647;1255;62839;-75
2024/04/02 14:16:55;;;;;;;;;;;;;;;;;;106826;1250;62935;-75
2024/04/02 14:19:21;;;;;;;;;;;;;;;;;;106828;1253;63328;-75
2024/04/02 14:21:47;;;;;;;;;;;;;;;;;;106651;1250;62823;-75
2024/04/02 14:24:14;;;;;;;;;;;;;;;;;;106696;1251;62978;-75
2024/04/02 14:26:40;;;;;;;;;;;;;;;;;;109168;1249;62883;-75
2024/04/02 14:29:06;;;;;;;;;;;;;;;;;;109633;1250;60676;-75
2024/04/02 14:31:32;;;;;;;;;;;;;;;;;;109591;1253;60585;-75
2024/04/02 14:34:02;;;;;;;;;;;;;;;;;;109615;1250;60946;-75
2024/04/02 14:36:31;;;;;;;;;;;;;;;;;;109595;1250;60776;-76
2024/04/02 14:38:58;;;;;;;;;;;;;;;;;;109626;1250;62439;-75
2024/04/02 14:41:24;;;;;;;;;;;;;;;;;;109659;1250;60354;-75
2024/04/02 14:43:50;;;;;;;;;;;;;;;;;;109625;1250;61724;-75
2024/04/02 14:46:16;;;;;;;;;;;;;;;;;;109628;1249;60536;-75
2024/04/02 14:48:42;;;;;;;;;;;;;;;;;;109638;1250;60861;-76
2024/04/02 14:51:09;;;;;;;;;;;;;;;;;;109654;1250;60798;-75
2024/04/02 14:53:35;;;;;;;;;;;;;;;;;;109618;1251;60781;-76
2024/04/02 14:56:04;;;;;;;;;;;;;;;;;;109588;1254;60621;-75
2024/04/02 14:58:30;;;;;;;;;;;;;;;;;;109608;1251;60550;-75
2024/04/02 15:00:56;;;;;;;;;;;;;;;;;;109685;1250;60701;-75
2024/04/02 15:03:23;;;;;;;;;;;;;;;;;;109632;1250;60527;-76
2024/04/02 15:05:49;;;;;;;;;;;;;;;;;;107763;1250;62858;-74
2024/04/02 15:08:15;;;;;;;;;;;;;;;;;;106597;1253;62968;-77
2024/04/02 15:10:41;;;;;;;;;;;;;;;;;;106677;1251;62976;-75
2024/04/02 15:13:07;;;;;;;;;;;;;;;;;;106562;1253;63082;-80
2024/04/02 15:15:34;;;;;;;;;;;;;;;;;;106610;1257;62690;-76
2024/04/02 15:18:00;;;;;;;;;;;;;;;;;;106620;1256;62873;-77
2024/04/02 15:20:26;;;;;;;;;;;;;;;;;;106610;1253;62978;-77
2024/04/02 15:22:52;;;;;;;;;;;;;;;;;;106591;1254;62908;-76
2024/04/02 15:25:19;;;;;;;;;;;;;;;;;;106686;1256;62917;-77
2024/04/02 15:27:45;;;;;;;;;;;;;;;;;;106602;1251;62845;-76
2024/04/02 15:30:11;;;;;;;;;;;;;;;;;;106625;1251;62933;-76
2024/04/02 15:32:42;;;;;;;;;;;;;;;;;;106742;1253;62726;-76
2024/04/02 15:35:08;;;;;;;;;;;;;;;;;;106642;1254;62854;-75
2024/04/02 15:37:34;;;;;;;;;;;;;;;;;;106711;1250;62819;-76
2024/04/02 15:40:01;;;;;;;;;;;;;;;;;;106615;1254;63753;-75
2024/04/02 15:42:27;;;;;;;;;;;;;;;;;;106597;1251;62835;-76
2024/04/02 15:44:53;;;;;;;;;;;;;;;;;;106672;1251;62892;-76
2024/04/02 15:47:19;;;;;;;;;;;;;;;;;;106679;1253;62914;-75
2024/04/02 15:49:46;;;;;;;;;;;;;;;;;;106531;1254;63173;-80
2024/04/02 15:52:13;;;;;;;;;;;;;;;;;;106599;1254;62934;-81
2024/04/02 15:54:39;;;;;;;;;;;;;;;;;;107188;1250;62976;-81
2024/04/02 15:57:05;;;;;;;;;;;;;;;;;;107218;1253;62555;-80
2024/04/02 15:59:31;;;;;;;;;;;;;;;;;;107306;1249;62713;-80
2024/04/02 16:01:58;;;;;;;;;;;;;;;;;;107423;1250;63001;-80
2024/04/02 16:04:24;;;;;;;;;;;;;;;;;;107484;1251;62887;-80
2024/04/02 16:06:50;;;;;;;;;;;;;;;;;;107429;1250;62912;-82
2024/04/02 16:09:16;;;;;;;;;;;;;;;;;;107385;1254;62960;-80
2024/04/02 16:11:42;;;;;;;;;;;;;;;;;;107426;1250;64494;-80
2024/04/02 16:14:08;;;;;;;;;;;;;;;;;;107102;1254;62872;-83
2024/04/02 16:16:35;;;;;;;;;;;;;;;;;;107112;1251;62950;-81
2024/04/02 16:19:01;;;;;;;;;;;;;;;;;;107187;1253;60865;-82
2024/04/02 16:21:27;;;;;;;;;;;;;;;;;;107035;1254;62794;-81
2024/04/02 16:23:53;;;;;;;;;;;;;;;;;;107084;1256;62847;-81
2024/04/02 16:26:21;;;;;;;;;;;;;;;;;;107085;1255;62876;-81